createdAt,value
2022-12-24T00:01:22.495Z,11.00
2022-12-24T00:03:51.171Z,10.90
2022-12-24T00:06:22.126Z,10.90
2022-12-24T00:08:52.371Z,10.90
2022-12-24T00:11:21.221Z,10.80
2022-12-24T00:13:50.091Z,10.70
2022-12-24T00:16:18.457Z,10.70
2022-12-24T00:18:47.272Z,10.60
2022-12-24T00:21:16.226Z,10.60
2022-12-24T00:23:44.664Z,10.70
2022-12-24T00:26:15.275Z,10.70
2022-12-24T00:28:43.656Z,10.70
2022-12-24T00:31:14.233Z,10.80
2022-12-24T00:33:42.631Z,10.90
2022-12-24T00:36:11.083Z,10.90
2022-12-24T00:38:39.875Z,10.90
2022-12-24T00:41:24.568Z,10.90
2022-12-24T00:43:56.412Z,10.80
2022-12-24T00:46:25.963Z,10.70
2022-12-24T00:48:54.450Z,10.60
2022-12-24T00:51:23.911Z,10.60
2022-12-24T00:53:52.248Z,10.70
2022-12-24T00:56:21.151Z,10.70
2022-12-24T00:58:49.376Z,10.80
2022-12-24T01:01:19.758Z,10.90
2022-12-24T01:03:48.630Z,10.90
2022-12-24T01:06:19.208Z,10.90
2022-12-24T01:08:47.565Z,10.90
2022-12-24T01:11:15.810Z,10.90
2022-12-24T01:13:44.116Z,10.90
2022-12-24T01:16:17.682Z,10.90
2022-12-24T01:18:47.565Z,10.90
2022-12-24T01:21:16.470Z,10.90
2022-12-24T01:23:45.020Z,10.90
2022-12-24T01:26:13.597Z,11.00
2022-12-24T01:28:42.205Z,10.90
2022-12-24T01:31:14.396Z,10.90
2022-12-24T01:33:43.128Z,10.80
2022-12-24T01:36:13.892Z,10.80
2022-12-24T01:38:42.563Z,10.90
2022-12-24T01:41:34.231Z,10.80
2022-12-24T01:44:17.919Z,10.80
2022-12-24T01:46:46.782Z,10.90
2022-12-24T01:49:16.920Z,10.90
2022-12-24T01:51:50.426Z,10.80
2022-12-24T01:54:22.442Z,10.80
2022-12-24T01:56:53.894Z,10.80
2022-12-24T01:59:23.078Z,10.80
2022-12-24T02:01:52.228Z,10.70
2022-12-24T02:04:29.680Z,10.70
2022-12-24T02:06:59.396Z,10.60
2022-12-24T02:09:28.201Z,10.60
2022-12-24T02:11:57.102Z,10.60
2022-12-24T02:14:26.794Z,10.60
2022-12-24T02:17:01.607Z,10.60
2022-12-24T02:20:12.067Z,10.60
2022-12-24T02:22:55.230Z,10.50
2022-12-24T02:25:45.177Z,10.40
2022-12-24T02:28:23.485Z,10.40
2022-12-24T02:30:57.067Z,10.50
2022-12-24T02:33:31.127Z,10.40
2022-12-24T02:36:06.340Z,10.50
2022-12-24T02:38:41.138Z,10.50
2022-12-24T02:41:14.829Z,10.50
2022-12-24T02:43:46.567Z,10.60
2022-12-24T02:46:20.875Z,10.70
2022-12-24T02:48:50.186Z,10.80
2022-12-24T02:51:24.095Z,10.70
2022-12-24T02:53:53.019Z,10.80
2022-12-24T02:56:34.678Z,10.80
2022-12-24T02:59:32.842Z,10.90
2022-12-24T03:02:13.794Z,10.90
2022-12-24T03:04:48.341Z,10.90
2022-12-24T03:07:26.695Z,10.80
2022-12-24T03:10:09.505Z,10.80
2022-12-24T03:12:42.936Z,10.80
2022-12-24T03:15:15.766Z,10.80
2022-12-24T03:17:48.668Z,10.70
2022-12-24T03:20:21.815Z,10.70
2022-12-24T03:22:50.270Z,10.70
2022-12-24T03:25:18.888Z,10.60
2022-12-24T03:27:47.608Z,10.70
2022-12-24T03:30:18.494Z,10.70
2022-12-24T03:32:48.698Z,10.70
2022-12-24T03:35:16.955Z,10.70
2022-12-24T03:37:45.274Z,10.80
2022-12-24T03:40:14.170Z,10.70
2022-12-24T03:42:42.395Z,10.70
2022-12-24T03:45:11.558Z,10.70
2022-12-24T03:47:39.826Z,10.70
2022-12-24T03:50:10.255Z,10.70
2022-12-24T03:52:38.519Z,10.70
2022-12-24T03:55:07.158Z,10.70
2022-12-24T03:57:35.373Z,10.70
2022-12-24T04:00:04.737Z,10.70
2022-12-24T04:02:40.323Z,10.70
2022-12-24T04:05:15.686Z,10.70
2022-12-24T04:07:44.159Z,10.60
2022-12-24T04:10:13.179Z,10.60
2022-12-24T04:12:41.573Z,10.60
2022-12-24T04:15:10.932Z,10.60
2022-12-24T04:17:39.329Z,10.60
2022-12-24T04:20:10.496Z,10.60
2022-12-24T04:22:38.699Z,10.60
2022-12-24T04:25:07.991Z,10.70
2022-12-24T04:27:36.323Z,10.70
2022-12-24T04:30:05.199Z,10.60
2022-12-24T04:32:33.412Z,10.60
2022-12-24T04:35:01.614Z,10.60
2022-12-24T04:37:31.255Z,10.60
2022-12-24T04:39:59.461Z,10.50
2022-12-24T04:42:27.662Z,10.40
2022-12-24T04:44:55.881Z,10.40
2022-12-24T04:47:24.103Z,10.30
2022-12-24T04:49:52.332Z,10.30
2022-12-24T04:52:20.601Z,10.20
2022-12-24T04:54:50.328Z,10.20
2022-12-24T04:57:18.556Z,10.20
2022-12-24T04:59:46.740Z,10.30
2022-12-24T05:02:15.106Z,10.30
2022-12-24T05:04:43.461Z,10.20
2022-12-24T05:07:11.670Z,10.10
2022-12-24T05:09:39.862Z,10.10
2022-12-24T05:12:09.691Z,10.00
2022-12-24T05:14:38.113Z,10.00
2022-12-24T05:17:06.374Z,10.00
2022-12-24T05:19:34.794Z,10.00
2022-12-24T05:22:20.204Z,10.00
2022-12-24T05:25:05.695Z,10.00
2022-12-24T05:27:35.285Z,10.00
2022-12-24T05:30:03.518Z,9.90
2022-12-24T05:32:31.800Z,9.90
2022-12-24T05:34:59.989Z,10.00
2022-12-24T05:37:28.185Z,10.00
2022-12-24T05:39:56.508Z,10.10
2022-12-24T05:42:24.676Z,10.10
2022-12-24T05:44:54.266Z,10.10
2022-12-24T05:47:22.496Z,10.10
2022-12-24T05:49:50.676Z,10.10
2022-12-24T05:52:18.888Z,10.00
2022-12-24T05:54:47.137Z,10.00
2022-12-24T05:57:15.360Z,9.90
2022-12-24T05:59:43.621Z,9.90
2022-12-24T06:02:13.321Z,9.80
2022-12-24T06:04:41.843Z,9.90
2022-12-24T06:07:10.090Z,9.80
2022-12-24T06:09:38.301Z,9.80
2022-12-24T06:12:06.998Z,9.80
2022-12-24T06:14:35.221Z,9.80
2022-12-24T06:17:03.405Z,9.70
2022-12-24T06:19:32.969Z,9.70
2022-12-24T06:22:01.149Z,9.90
2022-12-24T06:24:29.444Z,10.00
2022-12-24T06:26:57.654Z,9.90
2022-12-24T06:29:27.473Z,9.90
2022-12-24T06:31:55.968Z,9.90
2022-12-24T06:34:24.181Z,9.90
2022-12-24T06:36:53.785Z,10.00
2022-12-24T06:39:22.004Z,10.00
2022-12-24T06:41:50.261Z,10.00
2022-12-24T06:44:18.459Z,10.10
2022-12-24T06:46:46.783Z,10.00
2022-12-24T06:49:15.011Z,10.10
2022-12-24T06:51:43.218Z,10.00
2022-12-24T06:54:12.783Z,10.00
2022-12-24T06:56:41.077Z,9.90
2022-12-24T06:59:09.237Z,9.90
2022-12-24T07:01:37.598Z,9.90
2022-12-24T07:04:06.055Z,9.80
2022-12-24T07:06:34.339Z,9.90
2022-12-24T07:09:02.574Z,9.90
2022-12-24T07:11:32.160Z,9.90
2022-12-24T07:14:00.345Z,9.90
2022-12-24T07:16:28.607Z,9.90
2022-12-24T07:18:56.898Z,9.90
2022-12-24T07:21:25.072Z,9.90
2022-12-24T07:23:53.264Z,9.80
2022-12-24T07:26:21.428Z,9.70
2022-12-24T07:28:50.983Z,9.70
2022-12-24T07:31:19.233Z,9.70
2022-12-24T07:33:47.532Z,9.60
2022-12-24T07:36:20.484Z,9.70
2022-12-24T07:38:49.119Z,9.60
2022-12-24T07:41:17.311Z,9.60
2022-12-24T07:43:45.587Z,9.60
2022-12-24T07:46:15.336Z,9.50
2022-12-24T07:48:43.634Z,9.50
2022-12-24T07:51:11.958Z,9.50
2022-12-24T07:53:40.216Z,9.50
2022-12-24T07:56:12.658Z,9.50
2022-12-24T07:58:41.511Z,9.50
2022-12-24T08:01:10.638Z,9.50
2022-12-24T08:03:40.480Z,9.50
2022-12-24T08:06:08.859Z,9.50
2022-12-24T08:08:37.796Z,9.50
2022-12-24T08:11:07.949Z,9.50
2022-12-24T08:13:36.857Z,9.60
2022-12-24T08:16:06.155Z,9.50
2022-12-24T08:18:34.636Z,9.60
2022-12-24T08:21:04.482Z,9.60
2022-12-24T08:23:32.705Z,9.70
2022-12-24T08:26:00.865Z,9.80
2022-12-24T08:28:29.150Z,9.80
2022-12-24T08:30:57.410Z,9.90
2022-12-24T08:33:25.717Z,9.90
2022-12-24T08:35:57.029Z,10.00
2022-12-24T08:38:26.626Z,10.10
2022-12-24T08:40:55.462Z,10.10
2022-12-24T08:43:25.499Z,10.30
2022-12-24T08:45:54.595Z,10.40
2022-12-24T08:48:22.943Z,10.50
2022-12-24T08:50:51.167Z,10.50
2022-12-24T08:53:19.344Z,10.60
2022-12-24T08:55:55.683Z,10.80
2022-12-24T08:58:24.495Z,10.90
2022-12-24T09:00:52.807Z,10.90
2022-12-24T09:03:27.287Z,11.00
2022-12-24T09:05:56.092Z,11.10
2022-12-24T09:08:24.325Z,11.20
2022-12-24T09:10:53.922Z,11.20
2022-12-24T09:13:22.119Z,11.30
2022-12-24T09:15:55.228Z,11.40
2022-12-24T09:18:23.531Z,11.40
2022-12-24T09:20:57.059Z,11.50
2022-12-24T09:23:25.740Z,11.50
2022-12-24T09:25:55.319Z,11.60
2022-12-24T09:28:23.952Z,11.80
2022-12-24T09:31:00.141Z,11.90
2022-12-24T09:33:29.402Z,11.90
2022-12-24T09:35:57.925Z,12.00
2022-12-24T09:38:27.039Z,12.10
2022-12-24T09:40:59.248Z,12.10
2022-12-24T09:43:33.327Z,12.10
2022-12-24T09:46:11.006Z,12.30
2022-12-24T09:48:42.681Z,12.30
2022-12-24T09:51:12.518Z,12.30
2022-12-24T09:53:44.648Z,12.40
2022-12-24T09:56:18.191Z,12.50
2022-12-24T09:58:49.522Z,12.60
2022-12-24T10:01:19.826Z,12.70
2022-12-24T10:03:48.592Z,12.70
2022-12-24T10:06:26.821Z,12.70
2022-12-24T10:09:08.925Z,12.70
2022-12-24T10:11:47.451Z,12.80
2022-12-24T10:14:27.478Z,12.80
2022-12-24T10:17:05.560Z,12.80
2022-12-24T10:19:42.478Z,12.90
2022-12-24T10:22:19.554Z,13.10
2022-12-24T10:24:55.137Z,13.00
2022-12-24T10:27:29.266Z,12.90
2022-12-24T10:30:03.955Z,13.00
2022-12-24T10:32:34.117Z,13.00
2022-12-24T10:35:09.661Z,13.10
2022-12-24T10:37:37.812Z,13.00
2022-12-24T10:40:07.058Z,12.80
2022-12-24T10:42:48.400Z,12.60
2022-12-24T10:45:23.714Z,12.50
2022-12-24T10:47:56.775Z,12.40
2022-12-24T10:50:33.773Z,12.50
2022-12-24T10:53:08.110Z,12.60
2022-12-24T10:55:36.464Z,12.70
2022-12-24T10:58:08.476Z,12.70
2022-12-24T11:00:37.875Z,12.80
2022-12-24T11:03:29.457Z,12.80
2022-12-24T11:06:12.954Z,12.90
2022-12-24T11:08:43.868Z,13.10
2022-12-24T11:11:14.381Z,13.00
2022-12-24T11:13:46.994Z,12.80
2022-12-24T11:16:21.929Z,12.70
2022-12-24T11:18:52.390Z,12.60
2022-12-24T11:21:22.983Z,12.40
2022-12-24T11:23:54.572Z,12.50
2022-12-24T11:26:25.142Z,12.60
2022-12-24T11:29:15.307Z,12.80
2022-12-24T11:31:43.959Z,13.00
2022-12-24T11:34:28.041Z,13.20
2022-12-24T11:37:14.937Z,13.60
2022-12-24T11:39:48.513Z,13.70
2022-12-24T11:42:31.321Z,13.70
2022-12-24T11:45:03.262Z,13.50
2022-12-24T11:47:36.225Z,13.30
2022-12-24T11:50:27.080Z,13.40
2022-12-24T11:53:01.749Z,13.20
2022-12-24T11:55:42.443Z,13.20
2022-12-24T11:58:22.755Z,13.20
2022-12-24T12:00:53.685Z,13.20
2022-12-24T12:03:33.139Z,13.10
2022-12-24T12:06:04.943Z,13.00
2022-12-24T12:08:34.584Z,13.00
2022-12-24T12:11:10.245Z,13.00
2022-12-24T12:13:41.753Z,12.90
2022-12-24T12:16:19.609Z,12.90
2022-12-24T12:18:52.872Z,12.80
2022-12-24T12:21:24.493Z,12.80
2022-12-24T12:23:57.135Z,12.80
2022-12-24T12:26:28.055Z,12.90
2022-12-24T12:28:59.164Z,13.10
2022-12-24T12:31:34.118Z,13.30
2022-12-24T12:34:07.983Z,13.50
2022-12-24T12:36:44.034Z,13.70
2022-12-24T12:39:12.557Z,13.60
2022-12-24T12:41:51.717Z,13.70
2022-12-24T12:44:36.751Z,13.70
2022-12-24T12:47:23.888Z,13.80
2022-12-24T12:50:00.756Z,13.90
2022-12-24T12:52:43.231Z,14.00
2022-12-24T12:55:25.190Z,14.10
2022-12-24T12:57:57.827Z,14.10
2022-12-24T13:00:26.792Z,14.00
2022-12-24T13:03:23.007Z,14.00
2022-12-24T13:06:13.483Z,14.00
2022-12-24T13:09:14.374Z,14.10
2022-12-24T13:11:55.317Z,14.10
2022-12-24T13:14:47.042Z,14.30
2022-12-24T13:18:07.376Z,14.20
2022-12-24T13:20:40.047Z,14.20
2022-12-24T13:23:14.137Z,14.10
2022-12-24T13:25:44.744Z,13.90
2022-12-24T13:28:35.841Z,13.90
2022-12-24T13:31:29.712Z,13.80
2022-12-24T13:34:04.283Z,13.80
2022-12-24T13:37:06.609Z,13.70
2022-12-24T13:40:15.854Z,13.60
2022-12-24T13:43:12.251Z,13.60
2022-12-24T13:45:45.667Z,13.60
2022-12-24T13:48:32.324Z,13.60
2022-12-24T13:51:18.148Z,13.70
2022-12-24T13:53:49.071Z,13.90
2022-12-24T13:56:27.009Z,14.10
2022-12-24T13:59:11.610Z,14.30
2022-12-24T14:01:43.586Z,14.40
2022-12-24T14:04:25.214Z,14.60
2022-12-24T14:06:56.907Z,14.60
2022-12-24T14:09:26.798Z,14.40
2022-12-24T14:12:30.404Z,14.20
2022-12-24T14:14:58.695Z,13.90
2022-12-24T14:17:29.755Z,13.70
2022-12-24T14:20:00.035Z,13.50
2022-12-24T14:22:34.196Z,13.30
2022-12-24T14:25:05.432Z,13.10
2022-12-24T14:27:39.435Z,13.00
2022-12-24T14:30:10.268Z,12.90
2022-12-24T14:32:40.106Z,12.80
2022-12-24T14:35:10.349Z,12.70
2022-12-24T14:37:40.540Z,12.70
2022-12-24T14:40:10.095Z,12.50
2022-12-24T14:42:44.968Z,12.50
2022-12-24T14:45:24.023Z,12.40
2022-12-24T14:48:00.990Z,12.40
2022-12-24T14:51:00.021Z,12.50
2022-12-24T14:53:49.202Z,12.60
2022-12-24T14:56:19.849Z,12.70
2022-12-24T14:58:49.294Z,12.70
2022-12-24T15:01:23.534Z,12.80
2022-12-24T15:04:02.050Z,12.80
2022-12-24T15:06:32.800Z,12.70
2022-12-24T15:09:02.718Z,12.60
2022-12-24T15:11:31.307Z,12.60
2022-12-24T15:14:01.133Z,12.60
2022-12-24T15:16:32.508Z,12.50
2022-12-24T15:19:03.885Z,12.50
2022-12-24T15:21:34.487Z,12.40
2022-12-24T15:24:04.437Z,12.50
2022-12-24T15:26:36.165Z,12.50
2022-12-24T15:29:18.415Z,12.40
2022-12-24T15:31:46.638Z,12.40
2022-12-24T15:34:27.929Z,12.40
2022-12-24T15:37:04.312Z,12.30
2022-12-24T15:39:34.394Z,12.20
2022-12-24T15:42:14.815Z,12.00
2022-12-24T15:44:48.419Z,11.90
2022-12-24T15:47:20.103Z,11.80
2022-12-24T15:49:51.044Z,11.80
2022-12-24T15:52:24.274Z,11.80
2022-12-24T15:54:58.161Z,11.80
2022-12-24T15:57:31.540Z,11.90
2022-12-24T16:00:01.593Z,11.90
2022-12-24T16:02:41.422Z,11.90
2022-12-24T16:05:34.671Z,11.80
2022-12-24T16:08:22.132Z,11.70
2022-12-24T16:10:54.345Z,11.60
2022-12-24T16:13:24.900Z,11.50
2022-12-24T16:15:57.226Z,11.30
2022-12-24T16:18:28.102Z,11.10
2022-12-24T16:20:57.706Z,11.00
2022-12-24T16:23:30.571Z,10.90
2022-12-24T16:26:00.820Z,10.80
2022-12-24T16:28:29.025Z,10.80
2022-12-24T16:30:57.730Z,10.80
2022-12-24T16:33:26.042Z,10.90
2022-12-24T16:35:54.369Z,11.00
2022-12-24T16:38:22.872Z,11.00
2022-12-24T16:40:51.057Z,11.10
2022-12-24T16:43:38.193Z,11.20
2022-12-24T16:46:07.899Z,11.20
2022-12-24T16:48:38.911Z,11.30
2022-12-24T16:51:07.250Z,11.30
2022-12-24T16:53:35.434Z,11.30
2022-12-24T16:56:03.790Z,11.20
2022-12-24T16:58:33.472Z,11.10
2022-12-24T17:01:08.278Z,10.90
2022-12-24T17:03:37.214Z,10.80
2022-12-24T17:06:07.559Z,10.60
2022-12-24T17:08:36.435Z,10.60
2022-12-24T17:11:04.741Z,10.50
2022-12-24T17:13:34.316Z,10.30
2022-12-24T17:16:03.042Z,10.20
2022-12-24T17:18:31.285Z,10.20
2022-12-24T17:21:00.990Z,10.10
2022-12-24T17:23:29.523Z,10.00
2022-12-24T17:25:58.020Z,10.00
2022-12-24T17:28:26.370Z,10.00
2022-12-24T17:30:57.391Z,9.90
2022-12-24T17:33:25.926Z,9.90
2022-12-24T17:35:54.111Z,9.90
2022-12-24T17:38:22.373Z,10.00
2022-12-24T17:40:50.556Z,10.00
2022-12-24T17:43:18.852Z,9.90
2022-12-24T17:45:47.091Z,9.90
2022-12-24T17:48:16.695Z,9.80
2022-12-24T17:50:44.957Z,9.70
2022-12-24T17:53:13.257Z,9.80
2022-12-24T17:55:43.154Z,9.70
2022-12-24T17:58:11.925Z,9.60
2022-12-24T18:00:40.946Z,9.60
2022-12-24T18:03:13.410Z,9.60
2022-12-24T18:05:43.133Z,9.50
2022-12-24T18:08:11.341Z,9.50
2022-12-24T18:10:39.539Z,9.50
2022-12-24T18:13:07.881Z,9.50
2022-12-24T18:15:37.120Z,9.60
2022-12-24T18:18:06.108Z,9.60
2022-12-24T18:20:39.670Z,9.50
2022-12-24T18:23:12.384Z,9.50
2022-12-24T18:25:40.595Z,9.50
2022-12-24T18:28:08.783Z,9.50
2022-12-24T18:30:37.013Z,9.60
2022-12-24T18:33:05.287Z,9.50
2022-12-24T18:35:34.635Z,9.50
2022-12-24T18:38:02.764Z,9.50
2022-12-24T18:40:32.354Z,9.60
2022-12-24T18:43:00.573Z,9.60
2022-12-24T18:45:28.758Z,9.60
2022-12-24T18:47:56.981Z,9.60
2022-12-24T18:50:25.180Z,9.50
2022-12-24T18:52:53.344Z,9.60
2022-12-24T18:55:21.526Z,9.60
2022-12-24T18:57:51.082Z,9.60
2022-12-24T19:00:19.900Z,9.60
2022-12-24T19:02:48.461Z,9.60
2022-12-24T19:05:18.330Z,9.60
2022-12-24T19:07:46.881Z,9.50
2022-12-24T19:10:15.106Z,9.50
2022-12-24T19:12:43.344Z,9.50
2022-12-24T19:15:13.201Z,9.50
2022-12-24T19:17:41.460Z,9.50
2022-12-24T19:20:10.865Z,9.50
2022-12-24T19:22:39.062Z,9.50
2022-12-24T19:25:08.199Z,9.60
2022-12-24T19:27:36.417Z,9.50
2022-12-24T19:30:05.358Z,9.50
2022-12-24T19:32:34.965Z,9.50
2022-12-24T19:35:03.184Z,9.40
2022-12-24T19:37:31.426Z,9.50
2022-12-24T19:39:59.613Z,9.50
2022-12-24T19:42:27.842Z,9.60
2022-12-24T19:44:56.009Z,9.60
2022-12-24T19:47:24.274Z,9.60
2022-12-24T19:49:53.821Z,9.60
2022-12-24T19:52:22.032Z,9.60
2022-12-24T19:54:50.235Z,9.60
2022-12-24T19:57:18.434Z,9.70
2022-12-24T19:59:46.635Z,9.70
2022-12-24T20:02:15.169Z,9.80
2022-12-24T20:04:43.568Z,9.80
2022-12-24T20:07:13.186Z,9.90
2022-12-24T20:09:41.440Z,9.90
2022-12-24T20:12:09.625Z,10.00
2022-12-24T20:14:37.871Z,10.00
2022-12-24T20:17:07.345Z,10.00
2022-12-24T20:19:35.606Z,10.00
2022-12-24T20:22:03.831Z,10.00
2022-12-24T20:24:33.514Z,10.00
2022-12-24T20:27:01.714Z,10.00
2022-12-24T20:29:29.893Z,9.90
2022-12-24T20:31:58.218Z,9.90
2022-12-24T20:34:26.438Z,9.80
2022-12-24T20:36:54.648Z,9.70
2022-12-24T20:39:22.840Z,9.70
2022-12-24T20:41:52.436Z,9.80
2022-12-24T20:44:20.660Z,9.90
2022-12-24T20:46:48.859Z,9.90
2022-12-24T20:49:17.195Z,10.00
2022-12-24T20:51:45.437Z,10.00
2022-12-24T20:54:13.666Z,10.10
2022-12-24T20:56:41.942Z,10.00
2022-12-24T20:59:11.541Z,10.00
2022-12-24T21:01:39.970Z,10.00
2022-12-24T21:04:10.483Z,10.10
2022-12-24T21:06:38.888Z,10.10
2022-12-24T21:09:07.797Z,10.10
2022-12-24T21:11:53.545Z,10.10
2022-12-24T21:14:25.683Z,10.20
2022-12-24T21:16:55.654Z,10.20
2022-12-24T21:19:26.193Z,10.20
2022-12-24T21:21:55.083Z,10.30
2022-12-24T21:24:23.302Z,10.30
2022-12-24T21:26:51.553Z,10.30
2022-12-24T21:29:19.737Z,10.30
2022-12-24T21:31:49.329Z,10.30
2022-12-24T21:34:17.594Z,10.30
2022-12-24T21:36:46.104Z,10.20
2022-12-24T21:39:14.341Z,10.20
2022-12-24T21:41:43.239Z,10.20
2022-12-24T21:44:11.453Z,10.20
2022-12-24T21:46:39.687Z,10.20
2022-12-24T21:49:29.142Z,10.20
2022-12-24T21:51:57.443Z,10.20
2022-12-24T21:54:27.157Z,10.30
2022-12-24T21:57:15.735Z,10.30
2022-12-24T21:59:43.947Z,10.30
2022-12-24T22:02:13.826Z,10.30
2022-12-24T22:04:44.392Z,10.30
2022-12-24T22:07:38.429Z,10.40
2022-12-24T22:10:25.287Z,10.30
2022-12-24T22:12:53.745Z,10.30
2022-12-24T22:15:21.931Z,10.30
2022-12-24T22:17:50.202Z,10.30
2022-12-24T22:20:20.178Z,10.30
2022-12-24T22:22:49.092Z,10.30
2022-12-24T22:25:17.762Z,10.40
2022-12-24T22:27:45.994Z,10.40
2022-12-24T22:30:14.375Z,10.50
2022-12-24T22:32:42.623Z,10.50
2022-12-24T22:35:10.986Z,10.30
2022-12-24T22:37:40.619Z,10.30
2022-12-24T22:40:11.799Z,10.30
2022-12-24T22:42:41.233Z,10.20
2022-12-24T22:45:15.674Z,10.20
2022-12-24T22:47:46.700Z,10.20
2022-12-24T22:50:14.909Z,10.10
2022-12-24T22:52:44.520Z,10.10
2022-12-24T22:55:12.745Z,10.10
2022-12-24T22:57:40.981Z,10.00
2022-12-24T23:00:13.214Z,10.00
2022-12-24T23:02:41.521Z,10.00
2022-12-24T23:05:14.645Z,10.00
2022-12-24T23:07:44.395Z,10.00
2022-12-24T23:10:12.603Z,9.90
2022-12-24T23:12:58.361Z,9.80
2022-12-24T23:15:26.595Z,9.80
2022-12-24T23:17:54.811Z,9.70
2022-12-24T23:20:23.156Z,9.70
2022-12-24T23:22:52.718Z,9.70
2022-12-24T23:25:20.917Z,9.60
2022-12-24T23:27:49.208Z,9.60
2022-12-24T23:30:17.552Z,9.60
2022-12-24T23:32:45.737Z,9.50
2022-12-24T23:35:13.990Z,9.50
2022-12-24T23:37:42.182Z,9.40
2022-12-24T23:40:12.748Z,9.40
2022-12-24T23:42:40.975Z,9.30
2022-12-24T23:45:10.146Z,9.30
2022-12-24T23:47:38.387Z,9.30
2022-12-24T23:50:08.489Z,9.20
2022-12-24T23:52:36.732Z,9.20
2022-12-24T23:55:06.276Z,9.30
2022-12-24T23:57:35.917Z,9.20
